Little Rock, AR (72215)

11:48 PM CDT on September 14, 2014 (GMT -0500)
Heights | Change Station
CLOSE
Current Station
Personal Weather Station
Location: Little Rock, AR
Elevation: 581 ft
Nearby Weather Stations

Elev 581 ft 34.77 °N, 92.33 °W | Updated 6 seconds ago

Partly Cloudy
Partly Cloudy
65.8 °F
Feels Like 65.8 °F
N
0.0
Wind Variable Wind from North
Gusts 0.0 mph

Today
High -- | Low -- °F
--% Chance of Precip.
Yesterday
High -- | Low -- °F
Precip. -- in
6:51 AM 7:17 PM
Waning Gibbous, 59% visible
Pressure 30.19 in
Visibility 10.0 miles
Clouds Few 10000 ft
Scattered Clouds 15000 ft
Dew Point 51 °F
Humidity 59%
Rainfall 0.00 in
Snow Depth Not available.
UV 0 out of 12
Pollen 10.60 out of 12
Ozone Good
PM2.5 Good
Flu Activity Not available.
METAR KLIT 150353Z 00000KT 10SM FEW100 SCT150 19/15 A3018 RMK AO2 SLP221 T01940150

More Conditions Fewer Conditions

Pressure 30.19 in
Visibility 10.0 miles
Clouds Few 10000 ft
Scattered Clouds 15000 ft
Dew Point 51 °F
Humidity 59%
Rainfall 0.00 in
Snow Depth Not available.
UV 0 out of 12
Pollen 10.60 out of 12
Ozone Good
PM2.5 Good
Flu Activity Not available.
METAR KLIT 150353Z 00000KT 10SM FEW100 SCT150 19/15 A3018 RMK AO2 SLP221 T01940150

More Conditions Fewer Conditions

10-Day Weather Forecast

Almanac

Astronomy

Sep. 14, 2014 Rise Set
Actual Time 6:51 AM CDT 7:17 PM CDT
Civil Twilight 6:26 AM CDT 7:42 PM CDT
Nautical Twilight 5:56 AM CDT 8:12 PM CDT
Astronomical Twilight 5:26 AM CDT 8:42 PM CDT
Moon 11:24 PM CDT (9/14) 12:44 PM CDT (9/14)
Length of Visible Light 13h 16m
Length of Day
12h 25m
Tomorrow will be 2m 8s shorter.
Waning Gibbous, 59% of the Moon is Illuminated
Sep 15
Waning Gibbous
Sep 15
Last Quarter
Sep 24
New
Oct 1
First Quarter
Oct 8
Full

Yesterday's Extremes

State Highs State Lows

Community

WunderPhotos

Upload Photos

1,753,401 photos uploaded!

Nearby

Air Quality

  Air Quality AQ Index Pollutant
Yesterday Good
PM2.5
Yesterday Good
OZONE
Current Good
PM2.5
Current Good
OZONE
Sunday Good
OZONE
Monday Good
OZONE

Snow Depth

Station Depth Elevation
No new snow has been reported.

Earthquake Activity

City Distance Mag. Time & Date
No recent earthquake activity has been reported nearby.
Minimum magnitude displayed is 2.5.

Coastal Water Temperatures

Place Temperature
No Stations Reporting

Nearby Weather Stations